createdAt,value
2018-05-26T07:15:38.204Z,80.90
2018-05-26T07:20:41.668Z,83.20
2018-05-26T07:25:45.281Z,82.80
2018-05-26T07:30:48.538Z,82.80
2018-05-26T07:35:51.775Z,82.30
2018-05-26T07:40:55.494Z,81.40
2018-05-26T07:45:59.205Z,81.80
2018-05-26T07:51:02.817Z,82.20
2018-05-26T07:56:06.623Z,83.40
2018-05-26T08:01:10.113Z,83.40
2018-05-26T08:06:13.348Z,82.60
2018-05-26T08:11:16.784Z,82.40
2018-05-26T08:16:20.009Z,81.10
2018-05-26T08:21:23.369Z,80.90
2018-05-26T08:26:26.998Z,81.90
2018-05-26T08:31:31.823Z,82.10
2018-05-26T08:36:35.110Z,82.10
2018-05-26T08:41:38.434Z,81.10
2018-05-26T08:46:41.721Z,80.40
2018-05-26T08:51:45.565Z,78.80
2018-05-26T08:56:49.304Z,76.90
2018-05-26T09:01:52.535Z,76.80
2018-05-26T09:06:55.770Z,76.20
2018-05-26T09:11:59.089Z,76.00
2018-05-26T09:17:02.741Z,75.40
2018-05-26T09:22:05.966Z,75.40
2018-05-26T09:27:09.179Z,76.00
2018-05-26T09:32:12.423Z,75.00
2018-05-26T09:37:16.136Z,76.40
2018-05-26T09:42:19.764Z,76.80
2018-05-26T09:47:22.998Z,76.80
2018-05-26T09:52:26.810Z,77.50
2018-05-26T09:57:30.159Z,76.80
2018-05-26T10:02:33.785Z,76.20
2018-05-26T10:07:37.492Z,74.80
2018-05-26T10:12:41.229Z,74.30
2018-05-26T10:17:44.523Z,74.30
2018-05-26T10:22:47.897Z,75.00
2018-05-26T10:27:51.142Z,75.40
2018-05-26T10:32:54.393Z,73.30
2018-05-26T10:37:58.328Z,71.50
2018-05-26T10:43:03.091Z,71.20
2018-05-26T10:48:06.589Z,71.20
2018-05-26T10:53:10.060Z,71.20
2018-05-26T10:58:13.291Z,71.70
2018-05-26T11:03:16.940Z,69.20
2018-05-26T11:08:20.165Z,69.30
2018-05-26T11:13:23.406Z,69.90
2018-05-26T11:18:26.712Z,69.40
2018-05-26T11:23:30.114Z,68.10
2018-05-26T11:28:33.363Z,68.50
2018-05-26T11:33:36.716Z,68.40
2018-05-26T11:38:40.461Z,68.30
2018-05-26T11:43:43.822Z,69.40
2018-05-26T11:48:47.637Z,66.90
2018-05-26T11:53:51.274Z,65.90
2018-05-26T11:58:54.579Z,65.90
2018-05-26T12:03:57.811Z,64.50
2018-05-26T12:09:01.185Z,63.70
2018-05-26T12:14:04.428Z,62.90
2018-05-26T12:19:07.662Z,59.80
2018-05-26T12:24:11.292Z,59.70
2018-05-26T12:29:14.529Z,59.70
2018-05-26T12:34:17.762Z,58.60
2018-05-26T12:39:21.005Z,58.10
2018-05-26T12:44:24.230Z,57.40
2018-05-26T12:49:27.476Z,58.50
2018-05-26T12:54:30.744Z,58.40
2018-05-26T12:59:34.003Z,57.40
2018-05-26T13:04:37.286Z,56.80
2018-05-26T13:09:40.978Z,55.90
2018-05-26T13:14:44.311Z,55.90
2018-05-26T13:19:47.934Z,56.70
2018-05-26T13:24:51.215Z,56.80
2018-05-26T13:29:54.862Z,54.40
2018-05-26T13:34:58.080Z,54.40
2018-05-26T13:40:01.310Z,54.10
2018-05-26T13:45:04.639Z,54.10
2018-05-26T13:50:08.274Z,54.50
2018-05-26T13:55:12.040Z,53.30
2018-05-26T14:00:15.553Z,53.30
2018-05-26T14:05:20.430Z,53.80
2018-05-26T14:10:23.718Z,57.60
2018-05-26T14:15:26.941Z,58.00
2018-05-26T14:20:30.306Z,59.50
2018-05-26T14:25:33.926Z,62.50
2018-05-26T14:30:37.553Z,63.40
2018-05-26T14:35:40.926Z,63.40
2018-05-26T14:40:44.536Z,65.40
2018-05-26T14:45:48.157Z,64.90
2018-05-26T14:50:51.780Z,64.10
2018-05-26T14:55:54.991Z,64.20
2018-05-26T15:00:58.252Z,64.50
2018-05-26T15:06:01.565Z,64.30
2018-05-26T15:11:05.222Z,63.70
2018-05-26T15:16:08.494Z,63.70
2018-05-26T15:21:11.711Z,63.40
2018-05-26T15:26:14.938Z,60.80
2018-05-26T15:31:18.237Z,61.70
2018-05-26T15:36:21.606Z,60.90
2018-05-26T15:41:24.903Z,62.20
2018-05-26T15:46:28.207Z,61.90
2018-05-26T15:51:31.445Z,60.30
2018-05-26T15:56:34.681Z,59.40
2018-05-26T16:01:38.311Z,63.00
2018-05-26T16:06:41.926Z,62.50
2018-05-26T16:11:45.143Z,62.50
2018-05-26T16:16:48.367Z,62.90
2018-05-26T16:21:51.610Z,63.10
2018-05-26T16:26:55.240Z,59.00
2018-05-26T16:31:58.462Z,59.00
2018-05-26T16:37:01.714Z,57.60
2018-05-26T16:42:05.366Z,57.60
2018-05-26T16:47:08.598Z,57.60
2018-05-26T16:52:11.812Z,57.30
2018-05-26T16:57:15.039Z,56.80
2018-05-26T17:02:18.719Z,57.10
2018-05-26T17:07:21.946Z,57.10
2018-05-26T17:12:25.256Z,56.90
2018-05-26T17:17:28.886Z,61.80
2018-05-26T17:22:32.165Z,61.80
2018-05-26T17:27:35.864Z,66.70
2018-05-26T17:32:39.478Z,68.20
2018-05-26T17:37:43.100Z,69.30
2018-05-26T17:42:46.797Z,70.20
2018-05-26T17:47:50.511Z,71.30
2018-05-26T17:52:54.237Z,71.10
2018-05-26T17:57:57.612Z,71.10
2018-05-26T18:03:02.277Z,72.20
2018-05-26T18:08:05.582Z,72.70
2018-05-26T18:13:08.853Z,73.30
2018-05-26T18:18:12.070Z,74.10
2018-05-26T18:23:15.814Z,74.80
2018-05-26T18:28:19.110Z,74.80
2018-05-26T18:33:22.351Z,75.30
2018-05-26T18:38:25.631Z,76.00
2018-05-26T18:43:28.869Z,76.40
2018-05-26T18:48:32.099Z,76.80
2018-05-26T18:53:36.442Z,77.80
2018-05-26T18:58:39.720Z,77.80
2018-05-26T19:03:43.354Z,78.40
2018-05-26T19:08:46.567Z,78.30
2018-05-26T19:13:50.130Z,78.90
2018-05-26T19:18:55.288Z,79.20
2018-05-26T19:23:58.506Z,79.20
2018-05-26T19:29:01.867Z,79.40
2018-05-26T19:34:05.823Z,79.80
2018-05-26T19:39:09.076Z,79.80
2018-05-26T19:44:12.404Z,80.00
2018-05-26T19:49:16.013Z,81.20
2018-05-26T19:54:19.643Z,81.40
2018-05-26T19:59:22.999Z,81.40
2018-05-26T20:04:26.227Z,81.30
2018-05-26T20:09:29.857Z,81.40
2018-05-26T20:14:33.162Z,81.40
2018-05-26T20:19:36.387Z,81.90
2018-05-26T20:24:39.608Z,81.30
2018-05-26T20:29:42.922Z,80.80
2018-05-26T20:34:46.293Z,80.40
2018-05-26T20:39:51.408Z,80.80
2018-05-26T20:44:55.138Z,80.80
2018-05-26T20:49:58.416Z,80.90
2018-05-26T20:55:03.140Z,81.10
2018-05-26T21:00:06.826Z,80.90
2018-05-26T21:05:10.555Z,80.90
2018-05-26T21:10:13.877Z,80.70
2018-05-26T21:15:17.533Z,80.70
2018-05-26T21:20:20.746Z,80.70
2018-05-26T21:25:23.981Z,80.70
2018-05-26T21:30:27.439Z,80.90
2018-05-26T21:35:30.836Z,81.40
2018-05-26T21:40:34.320Z,82.10
2018-05-26T21:45:37.807Z,82.60
2018-05-26T21:50:41.042Z,82.00
2018-05-26T21:55:44.405Z,82.80
2018-05-26T22:00:48.221Z,83.70
2018-05-26T22:05:51.981Z,84.10
2018-05-26T22:10:55.233Z,84.10
2018-05-26T22:15:58.919Z,84.30
2018-05-26T22:21:02.227Z,84.30
2018-05-26T22:26:05.878Z,85.10
2018-05-26T22:31:09.500Z,85.10
2018-05-26T22:36:12.755Z,85.10
2018-05-26T22:41:16.015Z,85.40
2018-05-26T22:46:19.374Z,86.90
2018-05-26T22:51:23.061Z,87.20
2018-05-26T22:56:26.318Z,87.20
2018-05-26T23:01:29.556Z,87.90
2018-05-26T23:06:33.410Z,89.90
2018-05-26T23:11:37.056Z,93.10
2018-05-26T23:16:40.296Z,93.10
2018-05-26T23:21:43.642Z,93.60
2018-05-26T23:26:46.896Z,93.80
2018-05-26T23:31:50.124Z,93.50
2018-05-26T23:36:53.754Z,93.60
2018-05-26T23:41:56.957Z,93.50
2018-05-26T23:47:00.169Z,94.10
2018-05-26T23:52:03.421Z,93.70
2018-05-26T23:57:06.666Z,93.50
